Time,TemperatureF,DewpointF,PressureIn,WindDirection,WindDirectionDegrees,WindSpeedMPH,WindSpeedGustMPH,Humidity,HourlyPrecipIn,Conditions,Clouds,dailyrainin,SoftwareType,DateUTC
2013-01-19 00:07:00,27.2,25.2,30.35,WSW,240,0.0,0.0,92,0.00, FG,,-99.99,VWS V12.07,2013-01-19 08:07:00,
2013-01-19 01:07:00,26.6,24.6,30.34,WSW,241,0.0,0.0,92,0.00, FG,,-99.99,VWS V12.07,2013-01-19 09:07:00,
2013-01-19 02:07:00,25.8,23.5,30.35,WSW,240,0.0,0.0,91,0.00, FG,,-99.99,VWS V12.07,2013-01-19 10:07:00,
2013-01-19 03:07:00,25.7,23.4,30.35,WSW,241,0.0,0.0,91,0.00, FG,,-99.99,VWS V12.07,2013-01-19 11:07:00,
2013-01-19 05:07:00,25.4,23.1,30.37,WSW,241,0.0,0.0,91,0.00, FG,,-99.99,VWS V12.07,2013-01-19 13:07:00,
2013-01-19 06:07:00,25.6,23.3,30.37,WSW,241,0.0,0.0,91,0.00, FG,,-99.99,VWS V12.07,2013-01-19 14:07:00,
2013-01-19 07:07:00,24.8,22.5,30.37,WSW,241,0.0,0.0,91,0.00, FG,,-99.99,VWS V12.07,2013-01-19 15:07:00,
2013-01-19 08:07:00,24.7,22.5,30.37,WSW,241,0.0,0.0,91,0.00, FZFG,,-99.99,VWS V12.07,2013-01-19 16:07:00,
2013-01-19 09:07:00,24.8,22.5,30.39,WSW,241,0.0,0.0,91,0.00, FZFG,,-99.99,VWS V12.07,2013-01-19 17:07:00,
2013-01-19 10:07:00,27.5,25.5,30.40,WSW,241,1.0,1.0,92,0.01, FZFG,,-99.99,VWS V12.07,2013-01-19 18:07:00,
2013-01-19 11:07:00,27.5,25.5,30.39,WSW,241,2.0,2.0,92,0.01, FZFG,,-99.99,VWS V12.07,2013-01-19 19:07:00,
2013-01-19 12:07:00,28.5,26.7,30.37,WSW,241,0.0,2.0,93,0.00, FG,,-99.99,VWS V12.07,2013-01-19 20:07:00,
2013-01-19 13:07:00,29.4,27.6,30.36,WSW,241,0.0,1.0,93,0.00, FG,,-99.99,VWS V12.07,2013-01-19 21:07:00,
2013-01-19 16:07:00,30.1,28.3,30.36,WSW,241,0.0,1.0,93,0.00, FG,,-99.99,VWS V12.07,2013-01-20 00:07:00,
2013-01-19 17:07:00,30.0,28.2,30.37,WSW,241,0.0,0.0,93,0.00, FG,,-99.99,VWS V12.07,2013-01-20 01:07:00,
2013-01-19 18:07:00,29.5,27.7,30.36,WSW,240,0.0,0.0,93,0.00, FG,,-99.99,VWS V12.07,2013-01-20 02:07:00,
2013-01-19 19:07:00,29.5,27.7,30.37,WSW,240,0.0,1.0,93,0.00, FG,,-99.99,VWS V12.07,2013-01-20 03:07:00,
2013-01-19 20:07:00,29.1,27.3,30.38,WSW,240,0.0,0.0,93,0.00, FG,,-99.99,VWS V12.07,2013-01-20 04:07:00,
2013-01-19 21:07:00,28.7,26.9,30.38,WSW,240,0.0,0.0,93,0.00, FG,,-99.99,VWS V12.07,2013-01-20 05:07:00,
2013-01-19 22:07:00,28.1,26.3,30.39,WSW,239,0.0,0.0,93,0.00, FG,,-99.99,VWS V12.07,2013-01-20 06:07:00,
2013-01-19 23:07:00,27.5,25.5,30.38,WSW,239,0.0,0.0,92,0.00, FG,,-99.99,VWS V12.07,2013-01-20 07:07:00,